South Tamworth, New Hampshire
Current Conditions -  °F | °C
As of 11:35 AM on Friday 21 Nov 2014 (Local Time) from KLCI Reporting Station
Scattered Clouds Scattered Clouds  
Wind Chill: 17°   Ceiling: Unl
Heat Index: 28°   Visibility: 10mi
Dew Point:   Wind: 15mph
Humidity: 43%   Direction: 290°WNW
Pressure: 30.06"   Gusts: 24mph
Location:  43.82°N, 71.3°W
Report Text: KLCI 211635Z AUTO 29013G21KT 260V320 10SM SCT045 M02/M13 A3006 RMK AO1
Loading
Personal Weather Stations






























Interactive Weather Map New forecast layout! Learn more

10-Day Weather Forecast

Advertisements
Track Severe Weather on mobile